Time;durP1;ratioP1;P1;durP2;ratioP2;P2;SDS_P1;SDS_P2;PMS_P1;PMS_P2;Temp;Humidity;BMP_temperature;BMP_pressure;BME280_temperature;BME280_humidity;BME280_pressure;Samples;Min_cycle;Max_cycle;Signal;HPM_P1;HPM_P2
2022/08/17 00:02:19;;;;;;;10.80;5.50;;;;;;;19.01;86.22;98197.79;104557;1279;61049;-26
2022/08/17 00:04:53;;;;;;;14.30;5.90;;;;;;;18.88;87.22;98200.86;104476;1281;74781;-25
2022/08/17 00:07:20;;;;;;;9.30;6.00;;;;;;;19.26;85.45;98198.38;104558;1281;75990;-26
2022/08/17 00:09:47;;;;;;;8.70;6.00;;;;;;;19.47;84.31;98195.23;104477;1281;74205;-26
2022/08/17 00:12:14;;;;;;;15.30;6.90;;;;;;;19.38;84.64;98195.77;104363;1281;62465;-25
2022/08/17 00:15:01;;;;;;;13.80;7.00;;;;;;;18.88;87.26;98196.67;104454;1281;61117;-25
2022/08/17 00:17:28;;;;;;;12.30;5.70;;;;;;;18.90;87.64;98196.31;105099;1274;76017;-25
2022/08/17 00:19:55;;;;;;;10.50;6.80;;;;;;;19.28;85.66;98195.61;105015;1274;75869;-26
2022/08/17 00:22:22;;;;;;;12.90;7.30;;;;;;;19.57;84.49;98198.85;104766;1274;74167;-26
2022/08/17 00:25:08;;;;;;;10.40;7.40;;;;;;;19.54;84.20;98198.61;104771;1274;61099;-26
2022/08/17 00:27:35;;;;;;;15.90;7.60;;;;;;;19.30;84.86;98198.50;104659;1274;61153;-25
2022/08/17 00:30:06;;;;;;;8.20;5.50;;;;;;;19.12;86.20;98203.14;104816;1274;74670;-26
2022/08/17 00:32:42;;;;;;;11.40;6.00;;;;;;;19.50;84.91;98204.52;104630;1275;75015;-26
2022/08/17 00:35:29;;;;;;;7.20;5.20;;;;;;;19.91;83.16;98204.85;104794;1274;74143;-26
2022/08/17 00:37:56;;;;;;;11.50;7.60;;;;;;;19.89;82.63;98205.46;105059;1274;61732;-25
2022/08/17 00:40:23;;;;;;;10.40;5.80;;;;;;;19.64;83.24;98206.08;104760;1274;61110;-25
2022/08/17 00:42:52;;;;;;;4.90;3.80;;;;;;;19.53;83.70;98205.48;104842;1273;74895;-25
2022/08/17 00:45:19;;;;;;;11.00;5.30;;;;;;;19.82;83.20;98210.21;104736;1274;75848;-25
2022/08/17 00:47:46;;;;;;;7.70;5.20;;;;;;;20.16;81.87;98209.59;104857;1274;74267;-26
2022/08/17 00:50:15;;;;;;;10.40;6.70;;;;;;;20.00;81.70;98209.90;105057;1274;61258;-25
2022/08/17 00:52:53;;;;;;;9.90;6.10;;;;;;;19.68;83.25;98209.01;104488;1275;61153;-26
2022/08/17 00:55:21;;;;;;;7.10;4.40;;;;;;;19.46;84.63;98206.27;104701;1274;74793;-26
2022/08/17 00:57:50;;;;;;;6.70;5.30;;;;;;;19.93;83.24;98208.16;104803;1274;74824;-26
2022/08/17 01:00:28;;;;;;;7.90;5.40;;;;;;;20.11;81.79;98207.20;104759;1274;73512;-25
2022/08/17 01:03:07;;;;;;;9.30;6.50;;;;;;;20.00;82.04;98207.80;104729;1274;61277;-26
2022/08/17 01:05:37;;;;;;;13.80;7.40;;;;;;;19.71;83.33;98207.58;104678;1274;61021;-25
2022/08/17 01:08:12;;;;;;;7.20;4.30;;;;;;;19.52;84.46;98207.63;105030;1274;74519;-26
2022/08/17 01:10:46;;;;;;;7.20;5.30;;;;;;;19.83;83.27;98204.72;104728;1274;75993;-26
2022/08/17 01:13:49;;;;;;;8.50;5.90;;;;;;;19.96;82.63;98206.38;104698;1274;74784;-25
2022/08/17 01:16:36;;;;;;;13.20;7.10;;;;;;;19.55;84.61;98203.25;105113;1274;61181;-26
2022/08/17 01:19:19;;;;;;;7.80;5.50;;;;;;;19.44;85.33;98198.09;104781;1274;61909;-25
2022/08/17 01:22:10;;;;;;;9.10;4.50;;;;;;;19.43;85.70;98198.82;104932;1274;74626;-25
2022/08/17 01:24:46;;;;;;;6.00;5.20;;;;;;;19.91;83.58;98200.16;105282;1271;76541;-27
2022/08/17 01:27:13;;;;;;;8.30;5.40;;;;;;;20.08;82.16;98199.40;104961;1271;74250;-25
2022/08/17 01:29:44;;;;;;;9.50;6.40;;;;;;;19.90;82.97;98200.16;104972;1269;61463;-25
2022/08/17 01:32:12;;;;;;;8.70;5.50;;;;;;;19.70;83.62;98199.01;104839;1271;61111;-25
2022/08/17 01:34:39;;;;;;;6.90;4.30;;;;;;;19.49;84.84;98195.69;105325;1271;74888;-25
2022/08/17 01:37:13;;;;;;;;;;;;;;;19.93;83.27;98194.95;105272;1271;73911;-25
2022/08/17 01:39:43;;;;;;;9.50;5.40;;;;;;;19.97;82.56;98193.81;105396;1268;74915;-25
2022/08/17 01:42:31;;;;;;;6.60;5.40;;;;;;;20.07;82.37;98194.09;105261;1271;61036;-25
2022/08/17 01:45:03;;;;;;;12.30;6.70;;;;;;;19.76;82.96;98192.50;105126;1271;61126;-25
2022/08/17 01:47:31;;;;;;;7.30;5.20;;;;;;;19.53;84.48;98192.60;105185;1271;72889;-25
2022/08/17 01:50:11;;;;;;;10.00;5.30;;;;;;;19.62;84.19;98193.85;105017;1269;76396;-25
2022/08/17 01:52:38;;;;;;;7.00;5.50;;;;;;;19.72;83.63;98195.88;104836;1271;74258;-23
2022/08/17 01:55:06;;;;;;;11.50;6.20;;;;;;;19.76;83.54;98197.09;105267;1271;61140;-23
2022/08/17 01:57:33;;;;;;;10.10;5.80;;;;;;;19.58;83.94;98194.23;105228;1270;61107;-24
2022/08/17 02:00:01;;;;;;;11.80;5.00;;;;;;;19.17;85.92;98199.94;105489;1268;73679;-23
2022/08/17 02:02:37;;;;;;;8.10;5.40;;;;;;;19.48;85.09;98200.44;105271;1268;76131;-23
2022/08/17 02:05:05;;;;;;;8.50;5.90;;;;;;;19.67;83.84;98201.48;105394;1268;74488;-23
2022/08/17 02:07:38;;;;;;;15.00;6.20;;;;;;;19.61;83.80;98198.85;105084;1269;61891;-23
2022/08/17 02:10:26;;;;;;;6.30;4.80;;;;;;;19.20;85.70;98195.77;105156;1268;61134;-23
2022/08/17 02:13:01;;;;;;;10.30;6.90;;;;;;;19.62;84.59;98202.83;105175;1268;74595;-23
2022/08/17 02:15:29;;;;;;;8.80;5.90;;;;;;;19.74;83.58;98198.23;105094;1268;75954;-23
2022/08/17 02:17:56;;;;;;;12.00;6.50;;;;;;;19.90;82.95;98204.64;105470;1268;74513;-23
2022/08/17 02:20:23;;;;;;;10.30;7.00;;;;;;;19.69;83.02;98203.80;105297;1268;61080;-23
2022/08/17 02:23:10;;;;;;;9.90;5.70;;;;;;;18.97;87.01;98206.80;105436;1268;61130;-23
2022/08/17 02:25:37;;;;;;;15.20;7.30;;;;;;;19.28;86.12;98207.96;105079;1268;74799;-22
2022/08/17 02:28:05;;;;;;;12.50;7.10;;;;;;;19.39;85.35;98210.80;104850;1269;76352;-24
2022/08/17 02:30:32;;;;;;;12.80;8.30;;;;;;;19.03;87.02;98211.54;105010;1268;74599;-24
2022/08/17 02:33:20;;;;;;;9.10;6.00;;;;;;;18.88;88.08;98210.42;105149;1269;62722;-24
2022/08/17 02:35:47;;;;;;;10.00;6.30;;;;;;;19.31;86.41;98211.28;105202;1268;61069;-25
2022/08/17 02:38:14;;;;;;;10.20;6.20;;;;;;;19.76;84.30;98210.46;105248;1268;73769;-24
2022/08/17 02:40:41;;;;;;;10.20;6.90;;;;;;;19.53;84.26;98211.41;105162;1268;75080;-25
2022/08/17 02:43:08;;;;;;;11.90;7.50;;;;;;;19.36;85.36;98212.22;105143;1268;74700;-22
2022/08/17 02:45:35;;;;;;;6.80;4.40;;;;;;;18.99;87.52;98215.02;105402;1268;62644;-22
2022/08/17 02:48:03;;;;;;;11.20;6.50;;;;;;;19.26;86.12;98212.13;105242;1268;61036;-22
2022/08/17 02:50:30;;;;;;;9.40;6.30;;;;;;;19.67;84.62;98214.29;104871;1269;75481;-22
2022/08/17 02:52:57;;;;;;;12.00;6.20;;;;;;;19.86;83.36;98212.45;105240;1268;74686;-23
2022/08/17 02:55:36;;;;;;;10.50;8.10;;;;;;;19.49;84.55;98212.79;105320;1268;74405;-22
2022/08/17 02:58:03;;;;;;;9.30;6.30;;;;;;;19.02;87.54;98214.87;105139;1269;62649;-23
2022/08/17 03:00:33;;;;;;;10.50;7.50;;;;;;;19.16;87.03;98211.73;105415;1268;61104;-22
2022/08/17 03:03:01;;;;;;;10.90;8.20;;;;;;;19.30;86.30;98212.70;105192;1269;75424;-23
2022/08/17 03:05:30;;;;;;;16.20;8.30;;;;;;;19.12;87.28;98214.67;105040;1268;74971;-23
2022/08/17 03:07:57;;;;;;;13.20;8.70;;;;;;;19.01;88.05;98219.48;104842;1271;74203;-23
2022/08/17 03:10:24;;;;;;;9.00;6.40;;;;;;;19.14;87.32;98215.73;105013;1268;62645;-23
2022/08/17 03:12:51;;;;;;;12.90;6.70;;;;;;;19.60;85.31;98213.97;105202;1268;61081;-23
2022/08/17 03:15:24;;;;;;;10.10;7.10;;;;;;;19.68;84.20;98209.25;105168;1269;75495;-23
2022/08/17 03:17:53;;;;;;;9.20;6.90;;;;;;;19.50;85.17;98209.67;105185;1271;75990;-23
2022/08/17 03:20:20;;;;;;;7.60;6.80;;;;;;;19.46;85.34;98210.27;105135;1271;74161;-23
2022/08/17 03:22:48;;;;;;;8.40;5.30;;;;;;;19.18;86.80;98211.20;105358;1268;62689;-23
2022/08/17 03:25:23;;;;;;;10.00;6.10;;;;;;;19.75;84.75;98207.20;105038;1268;61077;-23
2022/08/17 03:27:50;;;;;;;8.50;5.90;;;;;;;19.85;83.46;98206.60;105022;1271;75526;-25
2022/08/17 03:30:17;;;;;;;10.00;7.00;;;;;;;19.76;83.76;98207.94;105368;1271;74885;-24
2022/08/17 03:32:48;;;;;;;7.30;5.50;;;;;;;19.42;85.01;98201.38;105336;1269;74159;-24
2022/08/17 03:35:17;;;;;;;7.30;5.60;;;;;;;19.31;86.07;98201.98;105017;1271;61689;-24
2022/08/17 03:37:45;;;;;;;12.40;5.90;;;;;;;19.33;85.65;98204.11;105080;1271;61226;-25
2022/08/17 03:40:12;;;;;;;9.80;6.90;;;;;;;19.32;85.96;98204.06;105098;1266;74647;-22
2022/08/17 03:42:40;;;;;;;9.00;6.80;;;;;;;19.32;86.12;98205.64;105122;1271;76388;-23
2022/08/17 03:45:10;;;;;;;6.30;4.50;;;;;;;19.17;86.62;98205.15;105356;1268;72938;-23
2022/08/17 03:58:47;;;;;;;8.00;5.70;;;;;;;19.25;86.20;98225.00;105270;1268;73399;-23
2022/08/17 04:01:14;;;;;;;8.20;7.10;;;;;;;19.60;85.71;98223.99;105469;1268;61167;-23
2022/08/17 04:03:41;;;;;;;8.00;7.00;;;;;;;19.78;83.83;98221.48;105497;1268;60998;-23
2022/08/17 04:06:09;;;;;;;10.30;6.10;;;;;;;19.56;84.81;98225.46;105134;1271;75596;-24
2022/08/17 04:08:36;;;;;;;11.40;7.20;;;;;;;19.37;85.54;98228.63;105234;1268;75973;-23
2022/08/17 04:11:03;;;;;;;7.30;4.00;;;;;;;19.27;86.58;98234.34;105161;1268;74266;-24
2022/08/17 04:13:30;;;;;;;9.70;5.20;;;;;;;19.94;84.47;98230.48;104804;1268;61082;-24
2022/08/17 04:15:58;;;;;;;6.90;5.50;;;;;;;20.18;82.52;98231.70;105201;1268;61104;-24
2022/08/17 04:18:26;;;;;;;7.90;5.80;;;;;;;20.01;82.53;98232.55;105421;1268;75398;-24
2022/08/17 04:20:53;;;;;;;7.70;5.60;;;;;;;19.88;83.04;98238.70;105250;1268;75745;-24
2022/08/17 04:23:19;;;;;;;11.30;4.10;;;;;;;19.74;83.74;98231.27;104964;1268;74437;-24
2022/08/17 04:25:48;;;;;;;5.80;4.40;;;;;;;20.05;83.07;98235.83;105071;1269;61859;-24
2022/08/17 04:28:17;;;;;;;6.40;5.70;;;;;;;20.19;81.58;98234.42;104872;1268;61911;-22
2022/08/17 04:30:44;;;;;;;6.30;5.60;;;;;;;20.24;81.40;98236.37;105187;1268;75391;-22
2022/08/17 04:33:14;;;;;;;9.00;5.40;;;;;;;20.16;82.14;98240.77;105261;1268;76125;-23
2022/08/17 04:35:44;;;;;;;8.20;4.70;;;;;;;20.00;82.81;98236.66;105212;1268;73443;-22
2022/08/17 04:38:14;;;;;;;7.80;4.80;;;;;;;20.29;82.14;98235.98;105146;1271;62072;-23
2022/08/17 04:43:27;;;;;;;9.60;6.50;;;;;;;20.34;80.93;98231.77;105429;1268;74557;-23
2022/08/17 04:45:59;;;;;;;8.30;6.50;;;;;;;20.04;82.83;98230.23;105161;1268;75998;-22
2022/08/17 04:48:29;;;;;;;5.90;4.30;;;;;;;19.82;84.22;98229.63;105101;1271;74476;-23
2022/08/17 04:51:05;;;;;;;9.20;5.10;;;;;;;20.26;82.97;98226.18;104983;1271;61146;-23
2022/08/17 04:53:32;;;;;;;6.40;5.00;;;;;;;20.61;81.42;98227.08;105178;1269;61813;-23
2022/08/17 04:55:59;;;;;;;9.20;6.00;;;;;;;20.61;81.11;98228.55;105443;1268;75438;-22
2022/08/17 04:58:26;;;;;;;10.50;7.00;;;;;;;20.26;82.11;98226.51;105418;1268;75650;-23
2022/08/17 05:00:54;;;;;;;5.50;4.20;;;;;;;20.02;84.20;98224.66;105427;1268;73226;-24
2022/08/17 05:03:21;;;;;;;7.00;5.10;;;;;;;20.49;82.42;98225.63;105441;1268;61337;-23
2022/08/17 05:05:50;;;;;;;8.30;6.00;;;;;;;20.87;80.70;98227.14;105434;1268;61078;-24
2022/08/17 05:08:18;;;;;;;9.40;7.20;;;;;;;20.86;80.37;98229.41;105167;1268;75618;-24
2022/08/17 05:10:45;;;;;;;7.40;6.00;;;;;;;20.28;82.81;98227.64;105022;1269;74283;-23
2022/08/17 05:13:21;;;;;;;8.00;5.60;;;;;;;20.16;83.29;98226.09;105311;1268;73381;-23
2022/08/17 05:15:53;;;;;;;8.20;5.30;;;;;;;20.19;83.87;98231.73;105319;1268;62687;-24
2022/08/17 05:18:21;;;;;;;9.10;5.40;;;;;;;20.74;81.47;98230.23;105308;1268;61125;-24
2022/08/17 05:20:51;;;;;;;8.70;5.80;;;;;;;20.90;80.69;98231.48;105329;1271;75532;-24
2022/08/17 05:23:20;;;;;;;7.60;6.60;;;;;;;20.80;80.63;98231.32;105265;1271;75955;-24
2022/08/17 05:25:49;;;;;;;6.40;5.50;;;;;;;20.53;81.49;98234.77;105165;1271;74378;-24
2022/08/17 05:28:17;;;;;;;10.80;6.00;;;;;;;20.35;82.85;98237.19;105178;1271;61954;-23
2022/08/17 05:30:50;;;;;;;8.20;5.90;;;;;;;20.73;81.60;98239.93;105143;1271;61246;-23
2022/08/17 05:33:20;;;;;;;8.50;6.30;;;;;;;20.79;80.76;98238.59;105275;1271;77029;-23
2022/08/17 05:35:48;;;;;;;11.80;6.60;;;;;;;20.55;81.66;98237.31;105257;1271;74996;-23
2022/08/17 05:38:17;;;;;;;11.60;5.40;;;;;;;20.43;82.74;98238.89;105187;1271;72321;-23
2022/08/17 05:40:44;;;;;;;9.70;5.80;;;;;;;20.83;81.59;98240.25;105155;1271;61197;-24
2022/08/17 05:43:15;;;;;;;7.70;6.30;;;;;;;21.04;80.43;98235.75;105243;1271;61088;-25
2022/08/17 05:45:58;;;;;;;10.10;6.90;;;;;;;21.13;80.19;98235.83;105312;1271;75616;-23
2022/08/17 05:48:25;;;;;;;11.20;8.00;;;;;;;20.82;81.28;98238.10;105174;1271;74962;-24
2022/08/17 05:51:32;;;;;;;10.10;4.80;;;;;;;20.69;82.35;98244.05;105131;1271;73368;-23
2022/08/17 05:54:22;;;;;;;13.90;7.00;;;;;;;21.02;81.14;98242.47;105243;1270;61127;-23
2022/08/17 05:57:07;;;;;;;8.00;6.10;;;;;;;21.22;80.14;98236.29;105285;1271;61026;-23
2022/08/17 05:59:47;;;;;;;9.10;6.80;;;;;;;21.02;81.23;98242.35;105161;1271;75676;-24
2022/08/17 06:02:28;;;;;;;12.20;7.70;;;;;;;20.86;81.71;98245.13;105308;1271;75974;-24
2022/08/17 06:05:17;;;;;;;9.60;5.60;;;;;;;20.55;83.49;98242.40;105286;1268;74566;-23
2022/08/17 06:07:52;;;;;;;9.60;5.90;;;;;;;21.16;80.31;98240.23;105305;1268;61135;-24
2022/08/17 06:10:31;;;;;;;12.30;7.00;;;;;;;21.52;79.04;98241.94;105320;1269;61040;-23
2022/08/17 06:13:01;;;;;;;10.90;7.50;;;;;;;21.32;79.48;98236.62;105263;1269;75426;-24
2022/08/17 06:15:28;;;;;;;8.30;7.10;;;;;;;20.84;81.14;98242.49;105386;1268;76056;-24
2022/08/17 06:18:01;;;;;;;10.60;6.50;;;;;;;20.74;82.13;98247.22;105436;1268;74487;-24
2022/08/17 06:20:31;;;;;;;6.80;5.70;;;;;;;21.17;80.73;98249.63;105099;1272;61952;-25
2022/08/17 07:12:37;;;;;;;10.20;6.40;;;;;;;21.29;80.76;98270.79;102707;1301;61783;-23
2022/08/17 07:15:26;;;;;;;8.80;6.00;;;;;;;21.38;80.99;98275.20;104202;1284;71167;-23
2022/08/17 07:17:52;;;;;;;5.80;4.60;;;;;;;21.17;81.45;98277.58;103149;1284;1394717;-23
2022/08/17 07:20:21;;;;;;;13.00;6.00;;;;;;;21.46;80.39;98276.45;104286;1283;61086;-23
2022/08/17 07:23:03;;;;;;;10.40;6.20;;;;;;;21.49;79.17;98278.79;104273;1284;61529;-23
2022/08/17 07:25:30;;;;;;;8.40;6.50;;;;;;;21.45;79.72;98279.63;104113;1284;62273;-23
2022/08/17 07:27:59;;;;;;;7.90;5.30;;;;;;;21.25;80.56;98284.94;104499;1283;72992;-23
2022/08/17 07:30:39;;;;;;;5.80;4.90;;;;;;;21.27;81.21;98291.11;104327;1284;75878;-23
2022/08/17 07:33:25;;;;;;;7.90;6.00;;;;;;;21.79;79.29;98296.42;104143;1284;74702;-23
2022/08/17 07:35:52;;;;;;;10.70;6.70;;;;;;;21.27;80.74;98302.31;104118;1284;61115;-23
2022/08/17 07:38:22;;;;;;;11.30;7.70;;;;;;;21.13;81.30;98306.67;104499;1284;61133;-23
2022/08/17 07:40:56;;;;;;;8.00;6.50;;;;;;;21.02;81.81;98311.36;104411;1284;74897;-23
2022/08/17 07:43:36;;;;;;;7.50;4.40;;;;;;;20.77;82.79;98308.08;104070;1284;75894;-23
2022/08/17 07:49:15;;;;;;;8.00;5.50;;;;;;;21.04;80.70;98304.19;104439;1284;61198;-25
2022/08/17 07:51:42;;;;;;;7.30;4.60;;;;;;;20.79;81.56;98307.91;104277;1284;61719;-24
2022/08/17 07:54:20;;;;;;;4.90;3.90;;;;;;;20.65;82.50;98306.24;104326;1284;74693;-24
2022/08/17 07:56:47;;;;;;;4.80;3.10;;;;;;;20.37;83.75;98304.54;104257;1282;76021;-24
2022/08/17 07:59:15;;;;;;;4.50;3.30;;;;;;;20.79;83.05;98301.06;104258;1281;73170;-24
2022/08/17 08:02:24;;;;;;;5.80;3.60;;;;;;;21.08;81.17;98298.39;104547;1281;61053;-23
2022/08/17 08:05:04;;;;;;;4.10;3.50;;;;;;;20.78;82.24;98294.48;104500;1281;62642;-22
2022/08/17 08:07:49;;;;;;;6.30;3.80;;;;;;;20.38;84.39;98296.34;104301;1284;74605;-22
2022/08/17 08:10:34;;;;;;;5.80;2.30;;;;;;;20.23;85.68;98293.77;104520;1281;74861;-22
2022/08/17 08:13:09;;;;;;;4.40;3.30;;;;;;;20.31;84.92;98293.23;104693;1274;72663;-20
2022/08/17 08:15:47;;;;;;;7.30;4.20;;;;;;;20.25;85.91;98295.56;104726;1274;61170;-20
2022/08/17 08:18:33;;;;;;;3.40;3.10;;;;;;;19.98;87.79;98296.09;104659;1275;62170;-20
2022/08/17 08:21:43;;;;;;;3.10;2.10;;;;;;;19.81;88.72;98296.60;104728;1276;74807;-20
2022/08/17 08:24:35;;;;;;;2.00;1.60;;;;;;;20.30;87.65;98302.95;104693;1277;76037;-19
2022/08/17 08:27:05;;;;;;;3.40;2.20;;;;;;;20.29;85.87;98306.30;104751;1275;74529;-22
2022/08/17 08:29:51;;;;;;;3.60;2.60;;;;;;;20.03;87.16;98301.67;104826;1277;61145;-20
2022/08/17 08:32:36;;;;;;;4.00;2.00;;;;;;;19.80;89.18;98303.95;104701;1277;61324;-22
2022/08/17 08:35:12;;;;;;;4.10;2.60;;;;;;;19.75;89.46;98308.87;104681;1276;74849;-19
2022/08/17 08:38:07;;;;;;;3.10;2.80;;;;;;;19.45;90.34;98313.06;104659;1277;74987;-20
2022/08/17 08:40:37;;;;;;;6.10;4.00;;;;;;;19.80;89.73;98315.45;104764;1277;74337;-20
2022/08/17 08:43:16;;;;;;;6.60;3.70;;;;;;;19.59;90.79;98316.41;104658;1277;61172;-19
2022/08/17 08:46:23;;;;;;;6.70;4.00;;;;;;;19.39;92.15;98317.45;104838;1277;61031;-20
2022/08/17 08:49:27;;;;;;;5.00;4.50;;;;;;;19.86;90.67;98323.42;104670;1277;74726;-20
2022/08/17 08:52:21;;;;;;;;;;;;;;;19.90;89.74;98326.64;104684;1275;75886;-22
2022/08/17 08:54:54;;;;;;;5.60;3.10;;;;;;;19.47;90.88;98325.52;104583;1275;74456;-21
2022/08/17 08:57:32;;;;;;;5.00;4.20;;;;;;;19.72;91.15;98328.25;104505;1275;61586;-21
2022/08/17 09:07:04;;;;;;;5.60;3.60;;;;;;;19.26;93.44;98329.95;102309;1300;615305;-20
2022/08/17 09:09:45;;;;;;;8.30;5.50;;;;;;;19.67;91.23;98329.55;103975;1284;61100;-19
2022/08/17 09:12:40;;;;;;;6.30;4.60;;;;;;;19.73;91.31;98331.95;104197;1286;61061;-21
2022/08/17 09:15:18;;;;;;;6.30;4.90;;;;;;;19.53;92.42;98338.34;104233;1284;73902;-20
2022/08/17 09:17:58;;;;;;;7.90;6.00;;;;;;;19.61;92.16;98338.80;104461;1284;76193;-22
2022/08/17 09:20:48;;;;;;;8.40;5.90;;;;;;;19.87;90.70;98343.42;103464;1281;1365333;-17
2022/08/17 09:23:31;;;;;;;7.80;7.00;;;;;;;19.98;89.92;98341.40;104345;1284;61922;-20
2022/08/17 09:26:16;;;;;;;6.30;5.00;;;;;;;20.02;90.78;98343.72;104360;1281;61038;-20
2022/08/17 09:28:45;;;;;;;6.60;4.80;;;;;;;20.68;87.23;98346.43;104318;1281;74073;-20
2022/08/17 09:31:19;;;;;;;6.20;5.60;;;;;;;20.44;86.29;98346.64;103788;1286;76127;-20
2022/08/17 09:33:47;;;;;;;;;;;;;;;20.14;88.06;98346.73;103995;1284;74815;-20
2022/08/17 09:36:37;;;;;;;7.00;5.50;;;;;;;20.16;88.67;98351.20;103898;1287;61151;-20
2022/08/17 09:39:12;;;;;;;7.20;6.50;;;;;;;20.31;89.33;98349.36;103750;1283;61068;-20
2022/08/17 09:41:57;;;;;;;9.20;6.70;;;;;;;20.48;87.49;98348.64;104275;1284;74652;-20
2022/08/17 09:44:38;;;;;;;7.30;6.50;;;;;;;20.59;87.87;98352.35;104436;1284;75883;-20
2022/08/17 09:47:17;;;;;;;8.60;6.60;;;;;;;20.79;87.04;98348.34;104310;1284;73397;-20
2022/08/17 09:49:48;;;;;;;5.40;4.70;;;;;;;20.76;87.59;98347.56;104210;1284;63477;-20
2022/08/17 09:52:16;;;;;;;7.20;5.90;;;;;;;21.15;84.52;98347.62;104056;1284;61548;-20
2022/08/17 09:54:44;;;;;;;7.10;5.80;;;;;;;20.95;84.61;98347.83;104156;1284;74650;-20
2022/08/17 09:57:21;;;;;;;6.60;6.00;;;;;;;20.93;85.32;98348.09;104335;1281;76037;-20
2022/08/17 10:00:11;;;;;;;7.60;6.50;;;;;;;21.00;84.58;98347.98;104348;1281;74520;-21
2022/08/17 10:02:52;;;;;;;5.60;5.00;;;;;;;20.85;85.99;98347.71;104309;1281;62571;-20
2022/08/17 10:05:26;;;;;;;6.80;5.60;;;;;;;21.36;84.96;98347.10;104475;1280;61051;-20
2022/08/17 10:08:26;;;;;;;9.60;6.80;;;;;;;21.52;83.29;98344.46;104266;1281;74630;-20
2022/08/17 10:14:41;;;;;;;5.90;4.60;;;;;;;20.85;86.41;98339.73;104517;1284;74600;-22
2022/08/17 10:17:31;;;;;;;7.20;5.40;;;;;;;21.33;85.21;98339.38;104538;1281;61107;-21
2022/08/17 10:20:22;;;;;;;8.20;5.70;;;;;;;21.75;83.43;98336.33;104557;1281;62013;-22
2022/08/17 10:28:54;;;;;;;;;;;;;;;21.64;83.07;98337.95;104305;1281;74316;-19
2022/08/17 10:31:27;;;;;;;9.20;6.90;;;;;;;21.36;83.80;98338.31;104555;1278;61122;-20
2022/08/17 10:34:27;;;;;;;10.90;7.10;;;;;;;21.81;84.33;98341.17;104426;1278;61967;-20
2022/08/17 10:37:22;;;;;;;9.30;7.00;;;;;;;21.38;83.63;98343.02;104711;1278;74658;-20
2022/08/17 10:40:17;;;;;;;8.60;6.30;;;;;;;21.79;83.90;98349.38;104604;1281;75858;-20
2022/08/17 10:42:50;;;;;;;10.40;7.00;;;;;;;22.13;81.34;98339.86;104635;1278;74331;-20
2022/08/17 10:45:20;;;;;;;9.60;7.00;;;;;;;22.40;81.39;98342.21;104423;1283;62044;-21
2022/08/17 10:48:04;;;;;;;10.90;7.00;;;;;;;22.72;80.72;98343.16;104494;1281;61147;-20
2022/08/17 10:50:43;;;;;;;10.20;8.00;;;;;;;22.78;79.53;98339.96;104605;1278;74522;-20
2022/08/17 10:53:10;;;;;;;6.70;5.50;;;;;;;22.39;79.73;98339.18;104582;1278;77674;-21
2022/08/17 10:55:37;;;;;;;11.90;6.10;;;;;;;22.87;79.59;98337.79;104385;1278;74245;-21
2022/08/17 10:58:20;;;;;;;11.60;6.90;;;;;;;24.08;75.73;98333.48;104348;1278;61032;-22
2022/08/17 11:00:50;;;;;;;11.40;7.60;;;;;;;23.94;74.13;98329.79;104608;1278;61301;-22
2022/08/17 11:03:20;;;;;;;10.80;8.20;;;;;;;23.08;76.29;98332.67;104612;1277;74607;-22
2022/08/17 11:05:54;;;;;;;8.20;7.40;;;;;;;22.35;78.15;98330.19;104475;1278;74458;-20
2022/08/17 11:08:47;;;;;;;8.90;7.30;;;;;;;23.39;77.97;98331.46;104536;1277;74403;-20
2022/08/17 11:11:24;;;;;;;11.10;6.10;;;;;;;24.19;74.81;98327.95;104971;1274;62668;-20
2022/08/17 11:14:20;;;;;;;7.80;5.90;;;;;;;24.87;70.96;98324.65;104870;1275;62122;-21
2022/08/17 11:17:26;;;;;;;13.00;7.00;;;;;;;25.29;71.27;98322.01;104884;1274;74550;-20
2022/08/17 11:20:14;;;;;;;10.70;7.60;;;;;;;24.87;71.54;98319.16;104901;1274;76022;-21
2022/08/17 11:23:09;;;;;;;11.30;7.70;;;;;;;24.05;72.17;98316.94;105111;1273;74948;-21
2022/08/17 11:25:43;;;;;;;11.20;7.20;;;;;;;24.19;72.04;98312.20;104749;1274;61313;-21
2022/08/17 11:28:18;;;;;;;9.80;7.80;;;;;;;24.60;70.50;98312.96;104806;1274;61777;-22
2022/08/17 11:30:54;;;;;;;9.30;5.50;;;;;;;25.03;68.09;98315.40;104653;1277;72895;-22
2022/08/17 11:33:33;;;;;;;9.40;6.00;;;;;;;25.89;66.34;98318.95;104564;1275;76102;-21
2022/08/17 11:36:33;;;;;;;10.10;7.70;;;;;;;26.65;63.90;98311.17;104594;1274;74399;-21
2022/08/17 11:39:23;;;;;;;10.90;7.80;;;;;;;26.75;62.97;98306.95;105119;1274;61043;-21
2022/08/17 11:42:01;;;;;;;10.40;7.70;;;;;;;26.33;65.46;98300.46;104994;1274;61867;-22
2022/08/17 11:44:50;;;;;;;7.20;6.30;;;;;;;26.13;65.05;98305.40;104931;1274;74509;-22
2022/08/17 11:53:44;;;;;;;9.60;6.40;;;;;;;25.73;67.91;98297.02;104730;1274;62605;-22
2022/08/17 11:56:47;;;;;;;9.20;6.20;;;;;;;25.64;66.51;98290.27;105122;1274;61035;-22
2022/08/17 11:59:37;;;;;;;14.20;6.80;;;;;;;25.82;66.10;98287.00;105125;1274;74887;-22
2022/08/17 12:02:29;;;;;;;7.80;5.70;;;;;;;26.73;62.45;98280.27;104959;1274;75979;-22
2022/08/17 12:05:11;;;;;;;;;;;;;;;27.03;63.63;98277.63;104722;1275;73869;-22
2022/08/17 12:07:51;;;;;;;9.10;6.20;;;;;;;27.27;63.30;98282.18;104611;1274;61109;-22
2022/08/17 12:10:21;;;;;;;7.60;6.20;;;;;;;27.27;59.54;98280.05;104693;1274;61941;-22
2022/08/17 12:12:49;;;;;;;7.30;5.90;;;;;;;26.77;59.15;98279.48;104684;1272;74982;-22
2022/08/17 12:15:20;;;;;;;7.00;5.70;;;;;;;26.70;60.22;98282.73;104786;1275;76106;-22
2022/08/17 12:17:52;;;;;;;8.10;6.70;;;;;;;26.31;61.00;98284.34;104685;1277;74264;-22
2022/08/17 12:20:32;;;;;;;7.10;6.40;;;;;;;26.01;61.66;98286.50;104762;1277;61192;-22
2022/08/17 12:23:17;;;;;;;10.40;6.70;;;;;;;25.92;62.18;98281.79;104630;1277;62462;-22
2022/08/17 12:26:16;;;;;;;8.10;6.80;;;;;;;26.35;60.89;98283.67;104662;1274;73852;-22
2022/08/17 12:28:45;;;;;;;8.90;6.90;;;;;;;25.83;62.59;98287.95;104496;1274;76654;-22
2022/08/17 12:31:28;;;;;;;13.10;6.40;;;;;;;25.79;62.35;98284.30;104671;1275;73975;-24
2022/08/17 12:33:55;;;;;;;10.50;6.50;;;;;;;26.25;61.24;98276.45;104893;1274;61101;-22
2022/08/17 12:36:24;;;;;;;6.90;6.20;;;;;;;26.52;60.28;98271.50;104920;1274;61082;-22
2022/08/17 12:38:56;;;;;;;7.90;6.50;;;;;;;26.96;60.37;98269.38;104581;1275;73811;-22
2022/08/17 12:41:32;;;;;;;7.50;6.30;;;;;;;27.24;57.72;98268.97;104912;1274;74745;-22
2022/08/17 12:44:34;;;;;;;8.80;6.60;;;;;;;27.57;58.29;98268.45;104912;1274;74426;-22
2022/08/17 12:47:18;;;;;;;8.50;7.00;;;;;;;27.64;56.86;98276.05;104748;1275;62139;-22
2022/08/17 12:49:51;;;;;;;9.50;6.90;;;;;;;27.32;57.22;98284.69;104705;1277;61130;-22
2022/08/17 12:52:18;;;;;;;12.90;6.50;;;;;;;27.21;57.74;98290.80;104632;1275;74919;-22
2022/08/17 12:54:50;;;;;;;13.10;6.50;;;;;;;27.01;56.46;98289.40;104797;1274;75962;-22
2022/08/17 12:57:26;;;;;;;7.60;6.60;;;;;;;26.57;58.48;98292.01;104760;1274;74287;-22
2022/08/17 12:59:59;;;;;;;11.20;6.80;;;;;;;27.00;59.32;98293.63;104637;1274;61172;-23
2022/08/17 13:02:30;;;;;;;7.80;6.30;;;;;;;27.17;57.34;98297.65;104607;1274;61807;-22
2022/08/17 13:04:59;;;;;;;8.80;6.70;;;;;;;26.97;57.07;98298.60;104880;1274;73916;-22
2022/08/17 13:07:28;;;;;;;8.90;6.10;;;;;;;26.95;59.30;98295.08;104704;1275;75036;-22
2022/08/17 13:09:55;;;;;;;9.30;6.60;;;;;;;27.05;58.66;98295.39;104622;1274;73272;-22
2022/08/17 13:12:31;;;;;;;7.60;6.50;;;;;;;26.80;58.05;98294.38;104786;1273;61127;-23
2022/08/17 13:14:59;;;;;;;7.10;5.40;;;;;;;26.54;56.01;98293.36;104651;1275;61108;-22
2022/08/17 13:17:35;;;;;;;10.10;6.20;;;;;;;26.75;56.99;98284.44;104653;1274;74689;-22
2022/08/17 13:20:04;;;;;;;6.60;5.30;;;;;;;27.12;56.49;98276.92;104592;1275;75994;-23
2022/08/17 13:22:31;;;;;;;11.10;6.30;;;;;;;27.28;54.86;98275.31;104633;1274;73296;-22
2022/08/17 13:25:02;;;;;;;8.80;5.80;;;;;;;27.47;55.09;98276.11;104598;1277;61943;-23
2022/08/17 13:27:29;;;;;;;8.30;6.10;;;;;;;27.59;55.83;98286.10;104676;1274;61179;-22
2022/08/17 13:29:59;;;;;;;11.00;6.60;;;;;;;27.56;55.61;98284.20;105117;1274;74630;-22
2022/08/17 13:32:29;;;;;;;8.50;6.30;;;;;;;27.26;55.55;98287.05;104799;1275;75958;-22